createdAt,value
2019-05-17T00:01:57.508Z,18.60
2019-05-17T00:04:27.012Z,15.08
2019-05-17T00:06:57.075Z,16.15
2019-05-17T00:09:26.778Z,11.63
2019-05-17T00:11:56.844Z,12.73
2019-05-17T00:14:26.999Z,12.18
2019-05-17T00:16:57.101Z,12.47
2019-05-17T00:19:26.282Z,14.00
2019-05-17T00:21:56.638Z,13.90
2019-05-17T00:24:26.565Z,13.98
2019-05-17T00:26:55.109Z,14.03
2019-05-17T00:29:23.350Z,12.78
2019-05-17T00:31:51.584Z,11.90
2019-05-17T00:34:19.830Z,13.78
2019-05-17T00:36:48.088Z,11.08
2019-05-17T00:39:16.800Z,10.08
2019-05-17T00:41:47.002Z,12.13
2019-05-17T00:44:16.729Z,14.45
2019-05-17T00:46:46.727Z,14.28
2019-05-17T00:49:17.176Z,12.45
2019-05-17T00:51:47.267Z,16.27
2019-05-17T00:54:17.258Z,14.30
2019-05-17T00:56:46.422Z,14.85
2019-05-17T00:59:16.821Z,16.05
2019-05-17T01:01:46.767Z,15.13
2019-05-17T01:04:17.107Z,13.70
2019-05-17T01:06:46.815Z,14.60
2019-05-17T01:09:16.823Z,16.32
2019-05-17T01:11:44.586Z,21.20
2019-05-17T01:14:12.829Z,19.55
2019-05-17T01:16:41.082Z,14.93
2019-05-17T01:19:09.331Z,16.23
2019-05-17T01:21:37.580Z,15.38
2019-05-17T01:24:06.822Z,16.07
2019-05-17T01:26:37.363Z,14.47
2019-05-17T01:29:06.691Z,14.10
2019-05-17T01:31:37.357Z,14.03
2019-05-17T01:34:07.416Z,14.93
2019-05-17T01:36:37.047Z,17.20
2019-05-17T01:39:17.019Z,14.40
2019-05-17T01:41:37.241Z,12.80
2019-05-17T01:44:07.505Z,21.42
2019-05-17T01:46:37.016Z,14.93
2019-05-17T01:49:06.914Z,13.48
2019-05-17T01:51:37.079Z,17.90
2019-05-17T01:54:06.881Z,14.10
2019-05-17T01:56:37.018Z,15.88
2019-05-17T01:59:06.845Z,13.25
2019-05-17T02:01:37.122Z,15.10
2019-05-17T02:04:06.579Z,15.78
2019-05-17T02:06:36.566Z,21.35
2019-05-17T02:09:06.457Z,19.30
2019-05-17T02:11:37.061Z,17.77
2019-05-17T02:14:06.891Z,16.12
2019-05-17T02:16:37.420Z,18.12
2019-05-17T02:19:06.759Z,19.50
2019-05-17T02:21:36.766Z,17.92
2019-05-17T02:24:07.756Z,17.65
2019-05-17T02:26:37.283Z,21.37
2019-05-17T02:29:04.804Z,17.87
2019-05-17T02:31:33.433Z,17.17
2019-05-17T02:34:03.102Z,18.17
2019-05-17T02:36:33.223Z,19.50
2019-05-17T02:39:03.566Z,20.48
2019-05-17T02:41:33.251Z,18.25
2019-05-17T02:44:02.509Z,17.98
2019-05-17T02:46:33.698Z,16.62
2019-05-17T02:49:03.050Z,17.90
2019-05-17T02:51:32.379Z,19.00
2019-05-17T02:54:04.133Z,17.80
2019-05-17T02:56:32.806Z,20.02
2019-05-17T02:59:03.519Z,18.45
2019-05-17T03:01:33.240Z,20.80
2019-05-17T03:04:03.880Z,23.52
2019-05-17T03:06:32.940Z,18.98
2019-05-17T03:09:03.510Z,17.27
2019-05-17T03:11:33.356Z,20.20
2019-05-17T03:14:04.139Z,23.05
2019-05-17T03:16:33.900Z,15.78
2019-05-17T03:19:04.290Z,18.20
2019-05-17T03:21:33.735Z,15.18
2019-05-17T03:24:03.150Z,15.60
2019-05-17T03:26:32.804Z,16.10
2019-05-17T03:29:22.686Z,19.15
2019-05-17T03:31:58.970Z,21.33
2019-05-17T03:34:26.106Z,17.05
2019-05-17T03:36:56.613Z,18.30
2019-05-17T03:39:22.648Z,15.85
2019-05-17T03:41:53.520Z,13.50
2019-05-17T03:44:22.612Z,13.95
2019-05-17T03:46:53.217Z,14.85
2019-05-17T03:49:22.279Z,12.43
2019-05-17T03:51:53.181Z,14.30
2019-05-17T03:54:22.703Z,12.53
2019-05-17T03:56:53.240Z,15.00
2019-05-17T03:59:24.048Z,13.05
2019-05-17T04:01:52.712Z,11.80
2019-05-17T04:04:22.864Z,13.75
2019-05-17T04:06:52.639Z,14.00
2019-05-17T04:09:22.432Z,14.03
2019-05-17T04:11:53.678Z,14.05
2019-05-17T04:14:22.516Z,16.07
2019-05-17T04:16:53.665Z,14.55
2019-05-17T04:19:22.996Z,14.05
2019-05-17T04:21:53.682Z,16.27
2019-05-17T04:24:23.041Z,17.07
2019-05-17T04:26:52.333Z,15.80
2019-05-17T04:29:22.714Z,18.42
2019-05-17T04:31:54.230Z,16.57
2019-05-17T04:34:22.445Z,17.62
2019-05-17T04:36:52.230Z,19.52
2019-05-17T04:39:22.613Z,21.73
2019-05-17T04:41:54.642Z,22.10
2019-05-17T04:44:23.030Z,23.65
2019-05-17T04:46:53.408Z,19.60
2019-05-17T04:49:24.037Z,21.12
2019-05-17T04:51:52.553Z,21.60
2019-05-17T04:54:22.743Z,26.82
2019-05-17T04:56:53.181Z,28.30
2019-05-17T04:59:24.051Z,32.93
2019-05-17T05:01:53.525Z,25.02
2019-05-17T05:04:22.596Z,28.50
2019-05-17T05:06:52.417Z,27.35
2019-05-17T05:09:22.998Z,35.15
2019-05-17T05:11:59.490Z,30.75
2019-05-17T05:14:23.180Z,35.15
2019-05-17T05:16:52.762Z,41.18
2019-05-17T05:19:22.339Z,31.20
2019-05-17T05:21:52.003Z,37.08
2019-05-17T05:24:22.295Z,41.05
2019-05-17T05:26:51.816Z,36.70
2019-05-17T05:29:21.623Z,43.28
2019-05-17T05:31:51.779Z,38.75
2019-05-17T05:34:21.597Z,38.13
2019-05-17T05:36:52.351Z,45.60
2019-05-17T05:39:20.030Z,40.20
2019-05-17T05:41:48.268Z,39.78
2019-05-17T05:44:16.514Z,42.90
2019-05-17T05:46:44.769Z,46.42
2019-05-17T05:49:13.033Z,34.15
2019-05-17T05:51:42.458Z,37.80
2019-05-17T05:54:12.328Z,38.30
2019-05-17T05:56:42.232Z,37.23
2019-05-17T05:59:12.131Z,38.17
2019-05-17T06:01:42.126Z,33.33
2019-05-17T06:04:11.736Z,36.25
2019-05-17T06:06:41.636Z,34.25
2019-05-17T06:09:12.050Z,41.15
2019-05-17T06:11:41.679Z,35.05
2019-05-17T06:14:12.226Z,35.05
2019-05-17T06:16:42.395Z,35.30
2019-05-17T06:19:11.684Z,40.08
2019-05-17T06:21:42.491Z,38.38
2019-05-17T06:24:11.857Z,36.17
2019-05-17T06:26:41.961Z,39.42
2019-05-17T06:29:11.827Z,34.75
2019-05-17T06:31:40.008Z,34.83
2019-05-17T06:34:08.264Z,34.13
2019-05-17T06:36:36.516Z,34.75
2019-05-17T06:39:07.100Z,36.83
2019-05-17T06:41:35.352Z,37.20
2019-05-17T06:44:03.608Z,39.38
2019-05-17T06:46:32.484Z,35.85
2019-05-17T06:49:03.040Z,39.13
2019-05-17T06:51:31.679Z,36.28
2019-05-17T06:54:01.772Z,33.85
2019-05-17T06:56:32.063Z,32.20
2019-05-17T06:59:00.024Z,32.08
2019-05-17T07:01:29.196Z,34.15
2019-05-17T07:03:57.588Z,29.30
2019-05-17T07:06:29.552Z,34.85
2019-05-17T07:08:57.440Z,31.40
2019-05-17T07:11:25.684Z,35.23
2019-05-17T07:13:54.008Z,29.23
2019-05-17T07:16:22.248Z,34.85
2019-05-17T07:18:50.508Z,33.95
2019-05-17T07:21:20.560Z,29.42
2019-05-17T07:23:49.872Z,31.00
2019-05-17T07:26:19.705Z,33.63
2019-05-17T07:28:49.814Z,33.65
2019-05-17T07:31:20.371Z,32.45
2019-05-17T07:33:50.336Z,28.77
2019-05-17T07:36:19.715Z,28.00
2019-05-17T07:38:50.346Z,28.77
2019-05-17T07:41:20.259Z,28.35
2019-05-17T07:43:49.774Z,29.52
2019-05-17T07:46:20.490Z,29.65
2019-05-17T07:48:49.738Z,27.20
2019-05-17T07:51:19.487Z,24.57
2019-05-17T07:53:49.559Z,25.62
2019-05-17T07:56:19.976Z,23.07
2019-05-17T07:58:49.523Z,26.15
2019-05-17T08:01:20.294Z,22.00
2019-05-17T08:03:49.945Z,25.68
2019-05-17T08:06:19.847Z,22.48
2019-05-17T08:08:50.134Z,22.93
2019-05-17T08:11:19.675Z,21.37
2019-05-17T08:13:50.286Z,21.42
2019-05-17T08:16:19.608Z,21.77
2019-05-17T08:18:49.658Z,20.85
2019-05-17T08:21:19.729Z,17.12
2019-05-17T08:23:47.744Z,20.68
2019-05-17T08:26:16.020Z,19.50
2019-05-17T08:28:44.256Z,18.00
2019-05-17T08:31:12.521Z,17.00
2019-05-17T08:33:40.821Z,15.75
2019-05-17T08:36:09.376Z,17.37
2019-05-17T08:38:39.329Z,16.45
2019-05-17T08:41:10.328Z,14.85
2019-05-17T08:43:45.284Z,17.87
2019-05-17T08:46:10.337Z,16.27
2019-05-17T08:48:40.007Z,17.67
2019-05-17T08:51:07.876Z,15.08
2019-05-17T08:53:36.129Z,36.68
2019-05-17T08:56:04.405Z,15.30
2019-05-17T08:58:32.675Z,14.03
2019-05-17T09:01:00.921Z,14.63
2019-05-17T09:03:30.324Z,14.23
2019-05-17T09:06:02.189Z,10.85
2019-05-17T09:08:29.846Z,14.05
2019-05-17T09:11:00.326Z,15.23
2019-05-17T09:13:29.850Z,14.00
2019-05-17T09:16:00.352Z,12.95
2019-05-17T09:18:30.230Z,14.68
2019-05-17T09:21:00.083Z,15.43
2019-05-17T09:23:30.187Z,16.10
2019-05-17T09:25:59.502Z,14.90
2019-05-17T09:28:29.965Z,13.35
2019-05-17T09:30:59.991Z,12.75
2019-05-17T09:33:30.083Z,15.95
2019-05-17T09:36:00.785Z,14.47
2019-05-17T09:38:29.499Z,14.43
2019-05-17T09:40:59.905Z,14.85
2019-05-17T09:43:29.555Z,14.95
2019-05-17T09:46:01.229Z,13.78
2019-05-17T09:48:30.733Z,15.98
2019-05-17T09:50:59.917Z,13.08
2019-05-17T09:53:30.470Z,14.80
2019-05-17T09:56:00.414Z,14.95
2019-05-17T09:58:29.920Z,14.93
2019-05-17T10:01:01.061Z,13.93
2019-05-17T10:03:30.525Z,15.18
2019-05-17T10:06:00.001Z,16.27
2019-05-17T10:08:28.199Z,15.40
2019-05-17T10:11:05.930Z,16.52
2019-05-17T10:13:26.421Z,16.73
2019-05-17T10:15:54.668Z,15.98
2019-05-17T10:18:22.929Z,15.18
2019-05-17T10:20:51.168Z,14.50
2019-05-17T10:23:19.751Z,15.75
2019-05-17T10:25:48.359Z,22.65
2019-05-17T10:28:16.620Z,21.12
2019-05-17T10:30:44.876Z,18.85
2019-05-17T10:33:13.136Z,18.12
2019-05-17T10:35:41.516Z,13.50
2019-05-17T10:38:10.472Z,16.10
2019-05-17T10:40:40.896Z,14.73
2019-05-17T10:43:10.086Z,13.75
2019-05-17T10:45:40.125Z,16.97
2019-05-17T10:48:10.215Z,18.75
2019-05-17T10:50:40.748Z,16.82
2019-05-17T10:53:09.969Z,16.32
2019-05-17T10:55:39.737Z,13.62
2019-05-17T10:58:09.952Z,18.20
2019-05-17T11:00:40.941Z,13.78
2019-05-17T11:03:09.760Z,15.13
2019-05-17T11:05:40.202Z,13.38
2019-05-17T11:08:10.755Z,12.78
2019-05-17T11:10:39.275Z,14.15
2019-05-17T11:13:07.970Z,14.70
2019-05-17T11:15:36.209Z,13.18
2019-05-17T11:18:04.465Z,13.43
2019-05-17T11:20:32.786Z,12.40
2019-05-17T11:23:01.047Z,12.05
2019-05-17T11:25:29.303Z,18.10
2019-05-17T11:27:57.621Z,12.88
2019-05-17T11:30:25.896Z,17.45
2019-05-17T11:32:54.225Z,10.75
2019-05-17T11:35:24.692Z,13.35
2019-05-17T11:37:52.481Z,11.65
2019-05-17T11:40:21.011Z,13.35
2019-05-17T11:42:49.250Z,15.53
2019-05-17T11:45:27.429Z,10.53
2019-05-17T11:47:47.468Z,8.88
2019-05-17T11:50:15.729Z,12.33
2019-05-17T11:52:43.972Z,9.90
2019-05-17T11:55:12.308Z,12.10
2019-05-17T11:57:40.555Z,17.87
2019-05-17T12:00:08.903Z,17.80
2019-05-17T12:02:37.226Z,12.85
2019-05-17T12:05:05.753Z,56.60
2019-05-17T12:07:34.000Z,44.50
2019-05-17T12:10:02.289Z,32.65
2019-05-17T12:12:30.528Z,11.75
2019-05-17T12:14:58.788Z,10.85
2019-05-17T12:17:27.029Z,9.90
2019-05-17T12:19:55.292Z,15.63
2019-05-17T12:22:23.543Z,11.60
2019-05-17T12:24:51.873Z,12.85
2019-05-17T12:27:20.180Z,13.53
2019-05-17T12:29:48.437Z,10.78
2019-05-17T12:32:17.293Z,12.80
2019-05-17T12:34:45.810Z,11.00
2019-05-17T12:37:14.058Z,14.15
2019-05-17T12:39:42.329Z,10.23
2019-05-17T12:42:10.648Z,12.05
2019-05-17T12:44:38.919Z,9.58
2019-05-17T12:47:07.161Z,8.68
2019-05-17T12:49:35.420Z,16.02
2019-05-17T12:52:03.677Z,8.65
2019-05-17T12:54:31.924Z,15.03
2019-05-17T12:57:00.165Z,8.90
2019-05-17T12:59:28.422Z,9.68
2019-05-17T13:01:56.672Z,9.15
2019-05-17T13:04:24.930Z,12.78
2019-05-17T13:06:53.191Z,8.58
2019-05-17T13:09:21.452Z,10.50
2019-05-17T13:11:49.701Z,12.55
2019-05-17T13:14:18.041Z,9.15
2019-05-17T13:16:46.281Z,8.63
2019-05-17T13:19:14.531Z,9.18
2019-05-17T13:21:42.782Z,9.73
2019-05-17T13:24:11.018Z,9.63
2019-05-17T13:26:39.289Z,11.70
2019-05-17T13:29:07.516Z,12.40
2019-05-17T13:31:35.774Z,9.53
2019-05-17T13:34:04.013Z,9.95
2019-05-17T13:36:32.269Z,10.50
2019-05-17T13:39:00.528Z,10.78
2019-05-17T13:41:28.768Z,8.18
2019-05-17T13:43:57.022Z,11.20
2019-05-17T13:46:33.340Z,9.78
2019-05-17T13:48:55.237Z,11.48
2019-05-17T13:51:23.497Z,10.13
2019-05-17T13:53:51.745Z,9.48
2019-05-17T13:56:19.999Z,8.25
2019-05-17T13:58:48.246Z,8.60
2019-05-17T14:01:16.492Z,10.80
2019-05-17T14:03:44.796Z,8.35
2019-05-17T14:06:13.043Z,10.65
2019-05-17T14:08:41.284Z,9.68
2019-05-17T14:11:09.551Z,10.10
2019-05-17T14:13:37.833Z,12.50
2019-05-17T14:16:06.158Z,9.23
2019-05-17T14:18:34.402Z,10.53
2019-05-17T14:21:02.656Z,9.98
2019-05-17T14:23:30.897Z,9.05
2019-05-17T14:25:59.168Z,9.00
2019-05-17T14:28:27.410Z,14.65
2019-05-17T14:30:55.664Z,10.32
2019-05-17T14:33:23.911Z,9.80
2019-05-17T14:35:52.332Z,8.28
2019-05-17T14:38:20.680Z,9.40
2019-05-17T14:41:07.339Z,8.73
2019-05-17T14:43:18.929Z,9.05
2019-05-17T14:45:47.214Z,11.65
2019-05-17T14:48:15.516Z,9.25
2019-05-17T14:50:43.785Z,6.62
2019-05-17T14:53:12.109Z,8.75
2019-05-17T14:55:40.500Z,7.85
2019-05-17T14:58:08.787Z,7.42
2019-05-17T15:00:37.090Z,7.28
2019-05-17T15:03:07.522Z,6.33
2019-05-17T15:05:35.322Z,8.88
2019-05-17T15:08:03.567Z,9.05
2019-05-17T15:10:31.889Z,9.10
2019-05-17T15:13:01.692Z,8.75
2019-05-17T15:15:30.053Z,9.60
2019-05-17T15:17:58.325Z,12.13
2019-05-17T15:20:26.569Z,10.38
2019-05-17T15:22:54.897Z,11.28
2019-05-17T15:25:23.136Z,11.00
2019-05-17T15:27:51.393Z,12.43
2019-05-17T15:30:19.641Z,13.05
2019-05-17T15:32:47.909Z,14.23
2019-05-17T15:35:16.149Z,11.60
2019-05-17T15:37:44.405Z,11.75
2019-05-17T15:40:12.916Z,11.08
2019-05-17T15:42:44.589Z,13.48
2019-05-17T15:45:11.220Z,10.40
2019-05-17T15:47:39.669Z,11.22
2019-05-17T15:50:08.252Z,12.03
2019-05-17T15:52:36.573Z,9.60
2019-05-17T15:55:06.053Z,10.65
2019-05-17T15:57:34.310Z,10.82
2019-05-17T16:00:03.054Z,10.93
2019-05-17T16:02:31.704Z,7.28
2019-05-17T16:04:59.968Z,7.22
2019-05-17T16:07:28.285Z,8.65
2019-05-17T16:09:56.527Z,8.43
2019-05-17T16:12:24.788Z,11.10
2019-05-17T16:14:53.036Z,10.85
2019-05-17T16:17:21.366Z,9.18
2019-05-17T16:19:49.629Z,7.75
2019-05-17T16:22:18.680Z,8.70
2019-05-17T16:24:46.929Z,10.85
2019-05-17T16:27:15.182Z,10.00
2019-05-17T16:29:43.417Z,9.70
2019-05-17T16:32:11.681Z,9.13
2019-05-17T16:34:39.924Z,11.75
2019-05-17T16:37:08.162Z,8.10
2019-05-17T16:39:36.426Z,8.93
2019-05-17T16:42:04.664Z,11.65
2019-05-17T16:44:32.918Z,9.55
2019-05-17T16:47:01.160Z,10.43
2019-05-17T16:49:29.445Z,10.98
2019-05-17T16:51:57.702Z,9.78
2019-05-17T16:54:25.960Z,10.28
2019-05-17T16:56:54.198Z,7.85
2019-05-17T16:59:22.456Z,11.97
2019-05-17T17:01:50.702Z,12.18
2019-05-17T17:04:19.132Z,9.95
2019-05-17T17:06:47.387Z,13.05
2019-05-17T17:09:15.709Z,9.15
2019-05-17T17:11:45.723Z,9.15
2019-05-17T17:14:14.110Z,11.50
2019-05-17T17:16:42.355Z,11.65
2019-05-17T17:19:11.149Z,10.13
2019-05-17T17:21:39.392Z,11.73
2019-05-17T17:24:07.678Z,10.78
2019-05-17T17:26:35.987Z,11.73
2019-05-17T17:29:04.242Z,11.15
2019-05-17T17:31:32.496Z,10.50
2019-05-17T17:34:00.746Z,10.10
2019-05-17T17:36:29.001Z,13.28
2019-05-17T17:38:57.264Z,10.82
2019-05-17T17:41:26.642Z,11.18
2019-05-17T17:43:58.626Z,12.33
2019-05-17T17:46:25.211Z,13.00
2019-05-17T17:48:53.456Z,11.55
2019-05-17T17:51:21.745Z,11.18
2019-05-17T17:53:50.143Z,13.62
2019-05-17T17:56:18.375Z,11.43
2019-05-17T17:58:46.641Z,12.37
2019-05-17T18:01:14.905Z,12.30
2019-05-17T18:03:43.160Z,13.32
2019-05-17T18:06:11.437Z,13.00
2019-05-17T18:08:39.673Z,13.62
2019-05-17T18:11:07.926Z,12.53
2019-05-17T18:13:36.223Z,13.53
2019-05-17T18:16:04.530Z,13.40
2019-05-17T18:18:34.400Z,14.45
2019-05-17T18:21:02.742Z,11.43
2019-05-17T18:23:30.972Z,13.75
2019-05-17T18:25:59.242Z,14.73
2019-05-17T18:28:27.488Z,10.63
2019-05-17T18:30:57.087Z,14.13
2019-05-17T18:33:25.375Z,11.35
2019-05-17T18:35:53.929Z,12.23
2019-05-17T18:38:22.166Z,11.83
2019-05-17T18:40:50.411Z,12.85
2019-05-17T18:43:18.674Z,14.60
2019-05-17T18:45:46.925Z,12.18
2019-05-17T18:48:15.173Z,13.80
2019-05-17T18:50:43.427Z,13.38
2019-05-17T18:53:16.745Z,16.23
2019-05-17T18:55:41.656Z,14.33
2019-05-17T18:58:09.911Z,13.32
2019-05-17T19:00:38.164Z,15.08
2019-05-17T19:03:06.474Z,10.88
2019-05-17T19:05:34.837Z,12.25
2019-05-17T19:08:03.128Z,13.05
2019-05-17T19:10:31.381Z,12.13
2019-05-17T19:12:59.652Z,14.35
2019-05-17T19:15:27.996Z,15.20
2019-05-17T19:17:56.258Z,15.48
2019-05-17T19:20:24.518Z,14.13
2019-05-17T19:22:53.050Z,14.80
2019-05-17T19:25:21.316Z,19.80
2019-05-17T19:27:49.564Z,16.23
2019-05-17T19:30:17.828Z,14.70
2019-05-17T19:32:46.071Z,20.12
2019-05-17T19:35:14.320Z,18.42
2019-05-17T19:37:42.582Z,17.62
2019-05-17T19:40:10.829Z,17.23
2019-05-17T19:42:39.132Z,15.00
2019-05-17T19:45:07.917Z,14.70
2019-05-17T19:47:36.189Z,17.27
2019-05-17T19:50:06.185Z,19.23
2019-05-17T19:52:34.446Z,27.17
2019-05-17T19:55:02.975Z,17.52
2019-05-17T19:57:31.337Z,16.02
2019-05-17T19:59:59.616Z,16.87
2019-05-17T20:02:27.888Z,16.42
2019-05-17T20:04:56.127Z,17.42
2019-05-17T20:07:24.423Z,17.05
2019-05-17T20:09:52.763Z,14.60
2019-05-17T20:12:21.017Z,15.60
2019-05-17T20:14:49.265Z,17.17
2019-05-17T20:17:17.549Z,13.88
2019-05-17T20:19:45.785Z,15.08
2019-05-17T20:22:14.044Z,19.10
2019-05-17T20:24:42.293Z,13.40
2019-05-17T20:27:10.557Z,15.88
2019-05-17T20:29:38.810Z,18.17
2019-05-17T20:32:07.072Z,16.15
2019-05-17T20:34:35.340Z,14.73
2019-05-17T20:37:03.583Z,15.38
2019-05-17T20:39:31.825Z,14.58
2019-05-17T20:42:00.097Z,14.78
2019-05-17T20:44:28.371Z,15.13
2019-05-17T20:46:56.620Z,15.38
2019-05-17T20:49:24.875Z,16.15
2019-05-17T20:51:53.135Z,18.23
2019-05-17T20:54:21.383Z,16.10
2019-05-17T20:56:49.637Z,17.20
2019-05-17T20:59:17.892Z,17.23
2019-05-17T21:01:46.156Z,15.23
2019-05-17T21:04:14.398Z,14.53
2019-05-17T21:06:42.645Z,15.15
2019-05-17T21:09:10.903Z,15.95
2019-05-17T21:11:39.162Z,19.98
2019-05-17T21:14:07.464Z,15.75
2019-05-17T21:16:35.753Z,15.60
2019-05-17T21:19:04.028Z,18.52
2019-05-17T21:21:32.277Z,18.17
2019-05-17T21:24:00.549Z,18.17
2019-05-17T21:26:28.837Z,16.60
2019-05-17T21:28:57.125Z,16.73
2019-05-17T21:31:25.372Z,16.65
2019-05-17T21:33:53.637Z,20.72
2019-05-17T21:36:21.885Z,18.80
2019-05-17T21:38:50.144Z,17.42
2019-05-17T21:41:18.393Z,16.00
2019-05-17T21:43:46.655Z,18.27
2019-05-17T21:46:14.896Z,16.90
2019-05-17T21:48:43.162Z,18.45
2019-05-17T21:51:11.404Z,22.32
2019-05-17T21:53:39.677Z,18.70
2019-05-17T21:56:07.934Z,16.30
2019-05-17T21:58:36.195Z,19.15
2019-05-17T22:01:16.081Z,17.45
2019-05-17T22:03:44.388Z,18.25
2019-05-17T22:06:12.640Z,20.40
2019-05-17T22:08:40.901Z,17.98
2019-05-17T22:11:09.164Z,22.15
2019-05-17T22:13:37.416Z,20.27
2019-05-17T22:16:18.588Z,18.45
2019-05-17T22:18:35.721Z,20.85
2019-05-17T22:21:03.966Z,18.17
2019-05-17T22:23:32.222Z,22.87
2019-05-17T22:26:00.460Z,18.95
2019-05-17T22:28:28.715Z,19.40
2019-05-17T22:30:56.972Z,23.65
2019-05-17T22:33:25.240Z,23.50
2019-05-17T22:35:53.472Z,22.22
2019-05-17T22:38:21.996Z,23.50
2019-05-17T22:40:50.237Z,30.68
2019-05-17T22:43:18.488Z,25.45
2019-05-17T22:45:46.736Z,30.88
2019-05-17T22:48:14.990Z,24.92
2019-05-17T22:50:43.898Z,24.95
2019-05-17T22:53:12.156Z,24.92
2019-05-17T22:55:40.400Z,23.47
2019-05-17T22:58:08.659Z,22.67
2019-05-17T23:00:36.900Z,24.67
2019-05-17T23:03:05.160Z,22.75
2019-05-17T23:05:33.474Z,24.35
2019-05-17T23:08:01.758Z,27.67
2019-05-17T23:10:30.060Z,21.40
2019-05-17T23:12:58.303Z,22.02
2019-05-17T23:15:28.201Z,25.40
2019-05-17T23:17:56.445Z,20.10
2019-05-17T23:20:24.697Z,21.82
2019-05-17T23:22:52.935Z,22.30
2019-05-17T23:25:21.190Z,22.37
2019-05-17T23:27:49.429Z,24.18
2019-05-17T23:30:17.954Z,22.02
2019-05-17T23:32:46.204Z,22.27
2019-05-17T23:35:14.460Z,21.77
2019-05-17T23:37:42.704Z,27.05
2019-05-17T23:40:10.955Z,22.55
2019-05-17T23:42:39.204Z,25.10
2019-05-17T23:45:10.381Z,25.52
2019-05-17T23:47:38.626Z,26.75
2019-05-17T23:50:08.718Z,27.13
2019-05-17T23:52:36.968Z,27.95
2019-05-17T23:55:06.360Z,29.98
2019-05-17T23:57:34.596Z,28.17
